Time;durP1;ratioP1;P1;durP2;ratioP2;P2;SDS_P1;SDS_P2;PMS_P1;PMS_P2;Temp;Humidity;BMP_temperature;BMP_pressure;BME280_temperature;BME280_humidity;BME280_pressure;Samples;Min_cycle;Max_cycle;Signal;HPM_P1;HPM_P2
2021/05/19 00:01:57;;;;;;;23.83;16.58;;;;;;;6.29;100.00;101374.63;5028199;28;20167;-77
2021/05/19 00:04:23;;;;;;;24.05;15.68;;;;;;;6.35;100.00;101376.00;5004530;28;20041;-78
2021/05/19 00:06:49;;;;;;;27.38;15.77;;;;;;;6.42;100.00;101383.28;5006797;28;20072;-78
2021/05/19 00:09:15;;;;;;;25.23;15.75;;;;;;;6.40;100.00;101374.75;5016066;28;20076;-79
2021/05/19 00:11:45;;;;;;;29.13;18.10;;;;;;;6.46;100.00;101383.06;5024169;28;20467;-79
2021/05/19 00:14:12;;;;;;;25.88;17.08;;;;;;;6.43;100.00;101381.50;4984798;28;20132;-79
2021/05/19 00:16:38;;;;;;;21.98;15.98;;;;;;;6.38;100.00;101373.16;5020156;28;20163;-79
2021/05/19 00:19:04;;;;;;;25.40;14.65;;;;;;;6.30;100.00;101367.63;5020171;28;20531;-78
2021/05/19 00:21:30;;;;;;;22.27;15.45;;;;;;;6.30;100.00;101378.88;5023494;28;20059;-79
2021/05/19 00:23:55;;;;;;;21.63;15.07;;;;;;;6.16;100.00;101363.34;5016901;28;20463;-80
2021/05/19 00:26:21;;;;;;;24.05;15.27;;;;;;;6.12;100.00;101375.75;5023408;28;20053;-79
2021/05/19 00:28:49;;;;;;;24.30;14.13;;;;;;;6.09;100.00;101380.34;5014610;28;20119;-79
2021/05/19 00:31:18;;;;;;;19.13;13.52;;;;;;;6.01;100.00;101384.28;5021489;28;20056;-80
2021/05/19 00:33:43;;;;;;;23.33;14.02;;;;;;;5.92;100.00;101382.25;5025453;28;20049;-79
2021/05/19 00:36:11;;;;;;;21.10;13.73;;;;;;;5.93;100.00;101386.50;5029549;28;20141;-80
2021/05/19 00:38:36;;;;;;;19.50;13.80;;;;;;;5.84;100.00;101384.53;5006550;28;20133;-80
2021/05/19 00:41:02;;;;;;;24.42;14.57;;;;;;;5.84;100.00;101397.53;5027309;28;20050;-81
2021/05/19 00:43:28;;;;;;;23.33;14.70;;;;;;;5.70;100.00;101384.56;5023145;28;20046;-83
2021/05/19 00:46:03;;;;;;;20.52;13.10;;;;;;;5.77;100.00;101397.09;5018487;28;20767;-78
2021/05/19 00:48:29;;;;;;;16.77;13.40;;;;;;;5.76;100.00;101385.00;5005770;28;20056;-80
2021/05/19 00:50:55;;;;;;;21.70;14.75;;;;;;;5.77;100.00;101386.69;4999510;28;20045;-78
2021/05/19 00:53:22;;;;;;;29.80;16.45;;;;;;;5.71;100.00;101387.06;5014345;28;20050;-78
2021/05/19 00:55:48;;;;;;;27.13;15.30;;;;;;;5.66;100.00;101386.53;5019734;28;20073;-79
2021/05/19 00:58:14;;;;;;;24.27;14.60;;;;;;;5.60;100.00;101392.97;5026862;28;20054;-78
2021/05/19 01:00:42;;;;;;;27.92;15.27;;;;;;;5.57;100.00;101387.94;5029641;28;20053;-77
2021/05/19 01:03:20;;;;;;;25.02;15.45;;;;;;;5.52;100.00;101395.22;5016145;28;20045;-79
2021/05/19 01:05:53;;;;;;;24.30;15.65;;;;;;;5.51;100.00;101390.13;5015980;28;20526;-77
2021/05/19 01:11:10;;;;;;;29.20;17.20;;;;;;;5.49;100.00;101392.81;5027140;28;20037;-79
2021/05/19 01:13:39;;;;;;;28.20;16.88;;;;;;;5.50;100.00;101393.66;5011723;28;20057;-78
2021/05/19 01:16:05;;;;;;;28.40;16.98;;;;;;;5.40;100.00;101391.63;5006655;28;20034;-77
2021/05/19 01:18:31;;;;;;;33.20;19.50;;;;;;;5.34;100.00;101405.03;4990944;28;20439;-77
2021/05/19 01:20:59;;;;;;;32.92;19.55;;;;;;;5.33;100.00;101399.91;4981515;28;20030;-80
2021/05/19 01:23:29;;;;;;;30.33;19.60;;;;;;;5.31;100.00;101402.59;5010635;28;20045;-77
2021/05/19 01:25:55;;;;;;;33.15;20.95;;;;;;;5.29;100.00;101401.03;4990807;28;20530;-80
2021/05/19 01:28:21;;;;;;;31.17;20.17;;;;;;;5.27;100.00;101406.34;5013086;28;20049;-81
2021/05/19 01:30:47;;;;;;;34.47;21.10;;;;;;;5.25;100.00;101409.06;4986353;28;20545;-82
2021/05/19 01:33:13;;;;;;;32.67;21.63;;;;;;;5.26;100.00;101402.91;4990758;28;20092;-80
2021/05/19 01:35:39;;;;;;;33.40;21.98;;;;;;;5.23;100.00;101402.25;4990144;28;20069;-79
2021/05/19 01:38:08;;;;;;;35.67;22.67;;;;;;;5.25;100.00;101398.66;4990206;28;20045;-79
2021/05/19 01:40:35;;;;;;;32.67;21.15;;;;;;;5.28;100.00;101405.41;4993591;28;20511;-77
2021/05/19 01:43:02;;;;;;;39.28;23.10;;;;;;;5.28;100.00;101409.78;5028128;28;20052;-78
2021/05/19 01:45:54;;;;;;;35.90;24.00;;;;;;;5.30;100.00;101407.94;5006391;28;20622;-79
2021/05/19 01:48:22;;;;;;;36.53;22.75;;;;;;;5.24;100.00;101393.53;5024747;28;20049;-78
2021/05/19 01:50:48;;;;;;;36.05;23.02;;;;;;;5.32;100.00;101408.66;5004608;28;20051;-79
2021/05/19 01:53:13;;;;;;;35.05;22.55;;;;;;;5.29;100.00;101409.66;5009109;28;20049;-79
2021/05/19 01:55:39;;;;;;;35.67;23.48;;;;;;;5.29;100.00;101403.63;5021827;28;20045;-78
2021/05/19 01:58:07;;;;;;;39.50;23.77;;;;;;;5.29;100.00;101406.25;4987640;28;20045;-80
2021/05/19 02:00:34;;;;;;;36.47;23.10;;;;;;;5.28;100.00;101402.00;5018927;28;20090;-78
2021/05/19 02:03:03;;;;;;;36.85;22.83;;;;;;;5.28;100.00;101421.03;5002483;28;20045;-78
2021/05/19 02:05:31;;;;;;;32.03;20.73;;;;;;;5.29;100.00;101414.03;5011051;28;20044;-78
2021/05/19 02:08:00;;;;;;;34.58;22.33;;;;;;;5.24;100.00;101419.56;5015506;28;20044;-78
2021/05/19 02:10:28;;;;;;;36.38;22.25;;;;;;;5.22;100.00;101411.84;5018463;28;20068;-79
2021/05/19 02:12:59;;;;;;;35.08;22.92;;;;;;;5.31;100.00;101422.59;5020447;28;20045;-77
2021/05/19 02:15:24;;;;;;;38.78;23.02;;;;;;;5.37;100.00;101411.78;5027506;28;20119;-80
2021/05/19 02:17:50;;;;;;;33.55;22.00;;;;;;;5.39;100.00;101410.78;5029839;28;20045;-82
2021/05/19 02:20:19;;;;;;;35.55;23.25;;;;;;;5.46;100.00;101413.81;5027094;28;20072;-80
2021/05/19 02:22:45;;;;;;;37.92;23.83;;;;;;;5.54;100.00;101419.38;5007089;28;20041;-80
2021/05/19 02:25:11;;;;;;;39.40;24.48;;;;;;;5.58;100.00;101409.63;5028059;28;20064;-79
2021/05/19 02:27:38;;;;;;;40.75;23.80;;;;;;;5.55;100.00;101420.22;5029801;28;20048;-78
2021/05/19 02:30:07;;;;;;;39.72;25.58;;;;;;;5.61;100.00;101412.00;5021728;28;20048;-79
2021/05/19 02:32:33;;;;;;;40.20;24.83;;;;;;;5.63;100.00;101418.81;5029697;28;20045;-80
2021/05/19 02:35:00;;;;;;;40.85;25.90;;;;;;;5.70;100.00;101415.81;5011841;28;20408;-78
2021/05/19 02:37:26;;;;;;;47.60;27.35;;;;;;;5.68;100.00;101408.09;5037029;28;20045;-78
2021/05/19 02:39:52;;;;;;;41.53;27.33;;;;;;;5.62;100.00;101413.69;5053211;28;20222;-79
2021/05/19 02:42:17;;;;;;;39.30;26.05;;;;;;;5.57;100.00;101392.31;5047553;28;20046;-79
2021/05/19 02:44:43;;;;;;;37.63;25.17;;;;;;;5.55;100.00;101408.03;5050655;28;20117;-78
2021/05/19 02:47:09;;;;;;;35.65;23.23;;;;;;;5.55;100.00;101412.41;5051977;28;20033;-79
2021/05/19 02:49:34;;;;;;;34.50;23.50;;;;;;;5.47;100.00;101405.91;5036300;28;20134;-80
2021/05/19 02:52:00;;;;;;;41.70;25.00;;;;;;;5.53;100.00;101412.50;4996616;28;20049;-80
2021/05/19 02:54:26;;;;;;;42.35;26.48;;;;;;;5.52;100.00;101413.44;5023438;28;20045;-79
2021/05/19 02:56:51;;;;;;;45.22;26.92;;;;;;;5.50;100.00;101398.84;5026584;28;20050;-82
2021/05/19 02:59:18;;;;;;;43.60;27.70;;;;;;;5.57;100.00;101400.13;5029139;28;20132;-80
2021/05/19 03:01:44;;;;;;;47.33;27.35;;;;;;;5.59;100.00;101413.88;5015082;28;20052;-79
2021/05/19 03:04:10;;;;;;;43.42;26.38;;;;;;;5.62;100.00;101404.13;5029965;28;20503;-81
2021/05/19 03:06:36;;;;;;;46.10;28.95;;;;;;;5.59;100.00;101404.28;5032437;28;20041;-79
2021/05/19 03:09:03;;;;;;;39.60;25.08;;;;;;;5.57;100.00;101406.16;5027988;28;20141;-79
2021/05/19 03:11:29;;;;;;;41.13;25.88;;;;;;;5.58;100.00;101414.81;5028966;28;20048;-79
2021/05/19 03:13:54;;;;;;;39.72;24.65;;;;;;;5.63;100.00;101421.41;5008089;28;20108;-79
2021/05/19 03:16:20;;;;;;;36.70;25.13;;;;;;;5.59;100.00;101421.69;5013505;28;20048;-80
2021/05/19 03:18:46;;;;;;;41.90;26.52;;;;;;;5.54;100.00;101422.00;5008954;28;20049;-79
2021/05/19 03:21:11;;;;;;;40.45;24.52;;;;;;;5.49;100.00;101411.03;4975321;28;20050;-79
2021/05/19 03:23:37;;;;;;;35.03;24.17;;;;;;;5.50;100.00;101415.31;4990329;28;20065;-82
2021/05/19 03:26:03;;;;;;;34.67;22.70;;;;;;;5.42;100.00;101409.75;5014838;28;20045;-81
2021/05/19 03:28:28;;;;;;;34.85;22.15;;;;;;;5.36;100.00;101413.56;5027597;28;20038;-78
2021/05/19 03:30:55;;;;;;;33.85;22.17;;;;;;;5.30;100.00;101424.38;5023172;28;20041;-80
2021/05/19 03:33:21;;;;;;;31.73;21.50;;;;;;;5.28;100.00;101418.44;5027467;28;20068;-79
2021/05/19 03:35:47;;;;;;;31.85;21.70;;;;;;;5.21;100.00;101406.72;5042959;28;20037;-81
2021/05/19 03:38:13;;;;;;;34.03;23.08;;;;;;;5.18;100.00;101418.16;5029442;28;20067;-81
2021/05/19 03:40:39;;;;;;;32.28;21.23;;;;;;;5.20;100.00;101424.09;5025983;28;20046;-81
2021/05/19 03:43:04;;;;;;;32.47;22.15;;;;;;;5.20;100.00;101421.50;5023155;28;20036;-80
2021/05/19 03:45:30;;;;;;;33.05;22.38;;;;;;;5.20;100.00;101424.09;5024414;28;20073;-80
2021/05/19 03:47:56;;;;;;;32.75;22.73;;;;;;;5.14;100.00;101415.84;5023219;28;20037;-82
2021/05/19 03:50:25;;;;;;;32.60;22.17;;;;;;;5.17;100.00;101426.88;4992963;28;20050;-82
2021/05/19 03:52:52;;;;;;;32.40;22.45;;;;;;;5.19;100.00;101419.00;5011673;28;20038;-80
2021/05/19 03:55:18;;;;;;;37.03;22.80;;;;;;;5.28;100.00;101430.59;5015729;28;20508;-81
2021/05/19 03:57:44;;;;;;;37.60;22.92;;;;;;;5.25;100.00;101426.41;5040561;28;20132;-79
2021/05/19 04:00:14;;;;;;;36.45;24.35;;;;;;;5.40;100.00;101440.22;5021227;28;20073;-79
2021/05/19 04:02:48;;;;;;;37.88;23.88;;;;;;;5.40;100.00;101438.44;5020841;28;20068;-79
2021/05/19 04:05:14;;;;;;;44.63;26.08;;;;;;;5.54;100.00;101436.75;5014116;28;20108;-79
2021/05/19 04:07:39;;;;;;;47.40;27.27;;;;;;;5.67;100.00;101440.28;5022879;28;20566;-80
2021/05/19 04:10:05;;;;;;;46.88;28.13;;;;;;;5.74;100.00;101428.50;5027975;28;20045;-80
2021/05/19 04:12:31;;;;;;;47.45;28.63;;;;;;;5.81;100.00;101432.41;5018324;28;20052;-78
2021/05/19 04:14:56;;;;;;;45.33;28.55;;;;;;;5.85;100.00;101443.44;5029433;28;20600;-80
2021/05/19 04:17:22;;;;;;;38.33;25.08;;;;;;;5.86;100.00;101442.53;5021378;28;20534;-78
2021/05/19 04:19:47;;;;;;;36.75;25.15;;;;;;;5.86;100.00;101439.94;5011506;28;20538;-78
2021/05/19 04:22:13;;;;;;;38.30;24.83;;;;;;;5.95;100.00;101451.50;5023765;28;20042;-81
2021/05/19 04:24:38;;;;;;;34.17;24.13;;;;;;;5.99;100.00;101455.59;5014926;28;20104;-78
2021/05/19 04:27:04;;;;;;;42.45;26.50;;;;;;;6.08;100.00;101457.63;5026557;28;20047;-81
2021/05/19 04:29:30;;;;;;;47.90;28.45;;;;;;;6.13;100.00;101452.13;5027662;28;20049;-81
2021/05/19 04:31:55;;;;;;;48.88;29.60;;;;;;;6.29;100.00;101451.94;5028927;28;20038;-82
2021/05/19 04:34:21;;;;;;;53.10;30.55;;;;;;;6.34;100.00;101450.69;5029196;28;20049;-81
2021/05/19 04:36:46;;;;;;;44.90;28.50;;;;;;;6.50;100.00;101460.09;5029553;28;20030;-80
2021/05/19 04:39:12;;;;;;;47.15;29.15;;;;;;;6.58;100.00;101458.66;5024687;28;20427;-83
2021/05/19 04:41:38;;;;;;;46.50;30.33;;;;;;;6.69;100.00;101459.72;5026379;28;20046;-80
2021/05/19 04:44:03;;;;;;;53.45;32.60;;;;;;;6.76;100.00;101458.34;5027161;28;20132;-79
2021/05/19 04:46:29;;;;;;;56.60;32.90;;;;;;;6.85;100.00;101472.53;5028268;28;20049;-79
2021/05/19 04:48:59;;;;;;;52.78;33.03;;;;;;;6.98;100.00;101473.38;5025118;28;20045;-79
2021/05/19 04:51:27;;;;;;;48.28;32.22;;;;;;;6.97;100.00;101462.09;5008858;28;20451;-79
2021/05/19 04:53:53;;;;;;;50.72;31.35;;;;;;;7.09;100.00;101464.81;5026522;28;20526;-79
2021/05/19 04:56:19;;;;;;;45.35;29.42;;;;;;;7.20;100.00;101478.78;5023974;28;20076;-79
2021/05/19 04:58:44;;;;;;;39.25;27.42;;;;;;;7.19;100.00;101479.69;5012936;28;20065;-80
2021/05/19 05:01:10;;;;;;;40.85;27.35;;;;;;;7.22;100.00;101481.28;5023664;28;20077;-80
2021/05/19 05:03:35;;;;;;;38.72;26.73;;;;;;;7.24;100.00;101489.00;5012617;28;20033;-80
2021/05/19 05:06:01;;;;;;;35.80;26.42;;;;;;;7.28;100.00;101485.25;5008404;28;20088;-79
2021/05/19 05:08:26;;;;;;;39.05;25.58;;;;;;;7.33;100.00;101496.19;5017817;28;20045;-78
2021/05/19 05:10:52;;;;;;;41.85;27.65;;;;;;;7.39;100.00;101499.19;5021364;28;20041;-79
2021/05/19 05:13:17;;;;;;;43.30;27.73;;;;;;;7.41;100.00;101499.09;5020337;28;20560;-82
2021/05/19 05:15:43;;;;;;;41.47;27.35;;;;;;;7.46;100.00;101491.78;5023170;28;20057;-79
2021/05/19 05:18:08;;;;;;;40.20;27.63;;;;;;;7.54;100.00;101497.28;5028328;28;20502;-81
2021/05/19 05:20:34;;;;;;;38.28;26.17;;;;;;;7.66;100.00;101492.97;5031119;28;20042;-80
2021/05/19 05:23:00;;;;;;;45.75;26.98;;;;;;;7.80;100.00;101497.22;5048054;28;20053;-79
2021/05/19 05:25:25;;;;;;;37.38;27.58;;;;;;;7.80;100.00;101490.22;5032719;28;20049;-81
2021/05/19 05:27:51;;;;;;;36.70;27.08;;;;;;;7.89;100.00;101491.34;5017847;28;20123;-79
2021/05/19 05:30:17;;;;;;;38.55;28.05;;;;;;;8.01;100.00;101496.63;5032335;28;20069;-79
2021/05/19 05:32:44;;;;;;;36.55;25.27;;;;;;;8.06;100.00;101486.66;5021425;28;20103;-79
2021/05/19 05:35:11;;;;;;;38.08;24.70;;;;;;;8.19;100.00;101495.25;5012439;28;20037;-78
2021/05/19 05:37:36;;;;;;;34.70;24.58;;;;;;;8.29;100.00;101503.28;5029603;28;20053;-79
2021/05/19 05:40:07;;;;;;;34.80;24.02;;;;;;;8.35;100.00;101500.22;5039031;28;20393;-80
2021/05/19 05:42:33;;;;;;;34.08;23.73;;;;;;;8.44;100.00;101511.78;5014387;28;20105;-79
2021/05/19 05:45:00;;;;;;;32.05;22.60;;;;;;;8.50;98.13;101508.75;5016656;28;20037;-79
2021/05/19 05:47:25;;;;;;;32.83;22.23;;;;;;;8.61;97.25;101505.28;5015161;28;20047;-78
2021/05/19 05:49:51;;;;;;;32.22;21.45;;;;;;;8.69;96.50;101505.56;5025466;28;20046;-80
2021/05/19 05:52:17;;;;;;;29.27;21.65;;;;;;;8.72;96.58;101510.56;5014679;28;20066;-79
2021/05/19 05:54:43;;;;;;;31.52;21.98;;;;;;;8.76;95.69;101506.78;4994172;28;20057;-78
2021/05/19 05:57:08;;;;;;;31.77;23.42;;;;;;;9.00;97.21;101517.16;5045133;28;20060;-79
2021/05/19 05:59:34;;;;;;;35.70;23.35;;;;;;;9.18;98.56;101512.28;5027180;28;20053;-79
2021/05/19 06:01:59;;;;;;;27.15;21.02;;;;;;;9.29;97.01;101514.09;5010417;28;20041;-79
2021/05/19 06:04:25;;;;;;;26.75;19.83;;;;;;;9.15;94.39;101521.22;5019156;28;20990;-81
2021/05/19 06:06:50;;;;;;;27.17;19.92;;;;;;;9.08;93.98;101521.78;5025952;28;20054;-79
2021/05/19 06:09:16;;;;;;;23.23;18.60;;;;;;;9.05;93.26;101522.03;5018019;28;20490;-80
2021/05/19 06:11:41;;;;;;;31.85;20.67;;;;;;;9.13;95.27;101530.13;5028140;28;20045;-81
2021/05/19 06:14:07;;;;;;;26.10;19.45;;;;;;;9.10;95.53;101520.75;5001835;28;20054;-81
2021/05/19 06:16:32;;;;;;;28.88;20.65;;;;;;;9.17;94.92;101521.09;5008144;28;20121;-79
2021/05/19 06:18:58;;;;;;;25.17;19.80;;;;;;;9.32;94.58;101529.53;5023538;28;20047;-82
2021/05/19 06:21:24;;;;;;;26.23;18.88;;;;;;;9.37;91.95;101523.97;5021701;28;20141;-78
2021/05/19 06:23:49;;;;;;;25.42;18.67;;;;;;;9.40;92.05;101519.31;5028960;28;20088;-79
2021/05/19 06:26:15;;;;;;;28.45;19.63;;;;;;;9.49;93.17;101530.84;5028210;28;20113;-79
2021/05/19 06:28:40;;;;;;;26.10;19.67;;;;;;;9.55;95.80;101530.38;5023757;28;20092;-79
2021/05/19 06:31:06;;;;;;;23.08;17.77;;;;;;;9.70;95.66;101542.28;5030365;28;20133;-78
2021/05/19 06:33:31;;;;;;;16.27;13.27;;;;;;;9.74;91.43;101532.38;5018594;28;20512;-79
2021/05/19 06:35:57;;;;;;;16.70;12.63;;;;;;;9.67;91.62;101531.19;5010569;28;20056;-80
2021/05/19 06:38:22;;;;;;;15.52;12.35;;;;;;;9.87;90.83;101535.69;5022915;28;20037;-78
2021/05/19 06:40:48;;;;;;;16.00;11.85;;;;;;;9.88;92.04;101544.38;5025772;28;20133;-79
2021/05/19 06:43:13;;;;;;;14.73;10.50;;;;;;;10.02;89.18;101551.13;4993935;28;20535;-81
2021/05/19 06:45:39;;;;;;;13.43;8.82;;;;;;;9.96;87.22;101538.53;5011158;28;20129;-82
2021/05/19 06:48:05;;;;;;;14.40;11.18;;;;;;;9.91;90.05;101538.91;5020924;28;20055;-80
2021/05/19 06:50:31;;;;;;;13.98;9.48;;;;;;;9.89;89.92;101538.19;5031112;28;20045;-80
2021/05/19 06:52:56;;;;;;;12.90;10.90;;;;;;;10.12;89.64;101542.41;5014805;28;20053;-80
2021/05/19 06:55:23;;;;;;;12.65;9.18;;;;;;;10.65;87.56;101533.75;5031681;28;20412;-79
2021/05/19 06:57:49;;;;;;;11.98;8.05;;;;;;;11.21;84.18;101537.00;5027630;28;20039;-81
2021/05/19 07:00:15;;;;;;;8.88;7.93;;;;;;;11.40;86.15;101544.94;5009781;28;20049;-80
2021/05/19 07:02:40;;;;;;;14.20;8.95;;;;;;;11.02;83.77;101538.53;5017431;28;20037;-79
2021/05/19 07:05:07;;;;;;;8.88;7.97;;;;;;;10.69;84.46;101529.91;5026437;28;20045;-78
2021/05/19 07:07:33;;;;;;;13.88;9.15;;;;;;;10.72;87.54;101531.47;5024086;28;20038;-79
2021/05/19 07:09:58;;;;;;;10.70;8.70;;;;;;;10.83;86.57;101538.41;5009308;28;20535;-79
2021/05/19 07:12:24;;;;;;;17.70;10.13;;;;;;;11.22;85.56;101534.22;5006983;28;20066;-79
2021/05/19 07:15:00;;;;;;;9.63;7.95;;;;;;;11.35;80.65;101536.63;5007260;28;20050;-80
2021/05/19 07:17:25;;;;;;;9.18;7.45;;;;;;;11.05;82.53;101540.06;5020500;28;20033;-78
2021/05/19 07:19:51;;;;;;;11.50;7.22;;;;;;;10.96;82.18;101539.03;5028669;28;20051;-79
2021/05/19 07:22:16;;;;;;;6.88;5.75;;;;;;;11.23;77.19;101549.00;5028432;28;20124;-80
2021/05/19 07:24:43;;;;;;;7.90;6.55;;;;;;;11.64;77.16;101539.34;5022355;28;20055;-79
2021/05/19 07:27:08;;;;;;;8.90;5.93;;;;;;;11.67;82.20;101554.00;5028764;28;20511;-78
2021/05/19 07:29:34;;;;;;;8.15;7.35;;;;;;;11.60;78.69;101548.47;5028812;28;20122;-78
2021/05/19 07:31:59;;;;;;;9.25;7.93;;;;;;;11.71;78.37;101555.41;5027115;28;20038;-77
2021/05/19 07:34:26;;;;;;;10.70;7.78;;;;;;;11.98;76.39;101552.19;5016889;28;20052;-80
2021/05/19 07:37:08;;;;;;;11.85;7.82;;;;;;;11.98;78.22;101552.19;5026325;28;20075;-80
2021/05/19 07:39:35;;;;;;;9.82;7.45;;;;;;;12.15;78.29;101558.59;5025378;28;20837;-78
2021/05/19 07:42:00;;;;;;;10.73;8.00;;;;;;;12.16;75.95;101551.53;5025685;28;20046;-79
2021/05/19 07:44:26;;;;;;;10.32;8.57;;;;;;;12.04;76.36;101564.78;5014466;28;20107;-79
2021/05/19 07:46:51;;;;;;;9.15;7.63;;;;;;;12.19;75.04;101565.22;5027350;28;20060;-81
2021/05/19 07:49:17;;;;;;;10.23;7.75;;;;;;;12.36;75.20;101549.75;5011262;28;20053;-79
2021/05/19 07:51:43;;;;;;;9.55;6.93;;;;;;;12.70;75.46;101554.56;5013982;28;20068;-79
2021/05/19 07:54:11;;;;;;;8.18;6.80;;;;;;;13.15;72.18;101549.47;4995935;28;20522;-78
2021/05/19 07:56:49;;;;;;;8.65;7.68;;;;;;;13.37;72.31;101547.47;5023245;28;20538;-78
2021/05/19 07:59:16;;;;;;;8.15;7.18;;;;;;;13.04;70.84;101550.47;5027768;28;20131;-77
2021/05/19 08:04:26;;;;;;;12.20;6.82;;;;;;;12.44;78.12;101553.31;5026298;28;20049;-79
2021/05/19 08:06:52;;;;;;;9.88;7.72;;;;;;;12.44;74.76;101552.50;5027306;28;20099;-80
2021/05/19 08:09:17;;;;;;;8.68;5.97;;;;;;;12.35;72.78;101556.78;5011713;28;20045;-77
2021/05/19 08:11:42;;;;;;;9.10;7.07;;;;;;;12.20;74.81;101561.63;5029263;28;20057;-79
2021/05/19 08:14:08;;;;;;;9.02;6.65;;;;;;;12.26;72.02;101560.22;5026880;28;20049;-77
2021/05/19 08:16:34;;;;;;;8.70;6.47;;;;;;;12.26;73.43;101565.50;5029825;28;20080;-78
2021/05/19 08:18:59;;;;;;;11.93;6.32;;;;;;;12.35;75.88;101563.84;5029273;28;20783;-77
2021/05/19 08:21:24;;;;;;;10.10;6.85;;;;;;;12.38;76.27;101561.78;5016458;28;20534;-78
2021/05/19 08:23:50;;;;;;;8.52;7.15;;;;;;;12.22;76.15;101564.13;5013353;28;20096;-79
2021/05/19 08:26:16;;;;;;;8.90;6.45;;;;;;;12.41;74.93;101561.50;5030227;28;20037;-78
2021/05/19 08:28:41;;;;;;;7.97;5.65;;;;;;;12.55;73.04;101562.88;5029014;28;20053;-78
2021/05/19 08:31:08;;;;;;;7.25;5.47;;;;;;;12.90;73.37;101563.25;5009961;28;20120;-79
2021/05/19 08:33:33;;;;;;;5.97;4.70;;;;;;;13.36;69.80;101551.91;5023659;28;20045;-79
2021/05/19 08:35:59;;;;;;;4.70;4.28;;;;;;;13.58;66.27;101566.53;5032169;28;20033;-78
2021/05/19 08:38:24;;;;;;;5.90;4.88;;;;;;;13.94;69.17;101563.16;5030087;28;20040;-78
2021/05/19 08:40:50;;;;;;;7.35;4.72;;;;;;;13.77;66.96;101564.78;5025489;28;20048;-78
2021/05/19 08:43:16;;;;;;;6.55;3.97;;;;;;;13.46;68.23;101561.59;5030411;28;20107;-78
2021/05/19 08:45:41;;;;;;;6.15;3.70;;;;;;;13.20;66.30;101547.25;5039742;28;20097;-78
2021/05/19 08:48:08;;;;;;;5.00;4.05;;;;;;;13.51;69.55;101560.19;5015258;28;20041;-77
2021/05/19 08:50:36;;;;;;;4.80;3.92;;;;;;;13.79;67.44;101558.38;5026232;28;20180;-77
2021/05/19 08:53:06;;;;;;;5.90;4.03;;;;;;;14.17;65.99;101566.19;5021911;28;20052;-79
2021/05/19 08:55:32;;;;;;;3.88;3.20;;;;;;;14.39;65.80;101557.81;5023370;28;20100;-76
2021/05/19 08:57:57;;;;;;;3.80;3.40;;;;;;;14.49;63.54;101554.28;5023067;28;20057;-78
2021/05/19 09:00:23;;;;;;;4.03;3.55;;;;;;;14.67;62.79;101562.19;5027000;28;20060;-78
2021/05/19 09:03:13;;;;;;;5.53;3.75;;;;;;;14.63;60.25;101572.22;5031049;28;20052;-78
2021/05/19 09:05:41;;;;;;;5.30;3.92;;;;;;;14.65;62.06;101564.16;5028035;28;20100;-79
2021/05/19 09:08:09;;;;;;;5.70;3.70;;;;;;;14.28;64.26;101565.97;5029254;28;20511;-78
2021/05/19 09:10:37;;;;;;;4.40;3.28;;;;;;;14.52;62.60;101560.06;5029980;28;20124;-78
2021/05/19 09:13:02;;;;;;;5.07;3.75;;;;;;;14.64;63.26;101565.97;5024631;28;20468;-80
2021/05/19 09:15:49;;;;;;;6.60;4.28;;;;;;;14.81;62.06;101564.28;5028135;28;20044;-78
2021/05/19 09:18:14;;;;;;;6.57;3.92;;;;;;;14.94;61.83;101561.25;5028564;28;20038;-77
2021/05/19 09:20:50;;;;;;;4.75;4.07;;;;;;;15.09;58.87;101569.44;5027033;28;20044;-81
2021/05/19 09:23:21;;;;;;;9.93;4.20;;;;;;;15.31;60.25;101560.13;5024687;28;20117;-78
2021/05/19 09:26:16;;;;;;;5.95;4.90;;;;;;;15.43;60.28;101561.50;5011329;28;20046;-77
2021/05/19 09:28:42;;;;;;;7.38;4.40;;;;;;;15.50;58.38;101565.19;4995095;28;20076;-78
2021/05/19 09:31:19;;;;;;;6.15;4.60;;;;;;;15.44;57.57;101563.16;5023839;28;20049;-77
2021/05/19 09:33:45;;;;;;;6.40;4.22;;;;;;;15.78;61.70;101559.66;5028250;28;20049;-78
2021/05/19 09:36:16;;;;;;;7.00;4.25;;;;;;;15.51;57.39;101560.72;5020060;28;20048;-78
2021/05/19 09:38:43;;;;;;;6.43;4.43;;;;;;;15.32;61.48;101567.06;5027510;28;20049;-76
2021/05/19 09:41:31;;;;;;;6.43;4.68;;;;;;;15.47;60.81;101568.13;5027736;28;20041;-78
2021/05/19 09:43:59;;;;;;;5.10;4.55;;;;;;;15.05;61.72;101563.63;5024884;28;20045;-77
2021/05/19 09:46:35;;;;;;;7.43;4.43;;;;;;;15.28;59.30;101563.09;5010640;28;20060;-78
2021/05/19 09:49:13;;;;;;;7.30;4.55;;;;;;;15.15;63.01;101559.03;5006836;28;20524;-77
2021/05/19 09:51:39;;;;;;;6.00;4.50;;;;;;;14.72;59.85;101558.09;5026175;28;20048;-79
2021/05/19 09:54:05;;;;;;;6.65;5.07;;;;;;;14.45;63.41;101551.09;5025076;28;20053;-77
2021/05/19 09:56:30;;;;;;;6.10;4.40;;;;;;;14.93;61.65;101554.28;5023986;28;20029;-79
2021/05/19 09:58:56;;;;;;;5.68;4.40;;;;;;;15.50;58.15;101553.75;5022618;28;20718;-80
2021/05/19 10:01:24;;;;;;;7.72;4.18;;;;;;;15.35;60.15;101557.00;5026663;28;20045;-79
2021/05/19 10:03:51;;;;;;;6.65;3.90;;;;;;;14.59;63.07;101555.84;5025959;28;20406;-79
2021/05/19 10:06:27;;;;;;;6.65;4.20;;;;;;;14.96;60.07;101553.97;5026903;28;20037;-78
2021/05/19 10:08:53;;;;;;;5.10;3.90;;;;;;;15.42;56.57;101553.72;5028349;28;20076;-79
2021/05/19 10:11:18;;;;;;;5.78;3.60;;;;;;;15.87;59.25;101557.88;5023198;28;20053;-77
2021/05/19 10:13:44;;;;;;;4.07;3.38;;;;;;;16.28;57.02;101555.31;5024330;28;20041;-75
2021/05/19 10:16:15;;;;;;;6.63;3.53;;;;;;;15.90;55.41;101554.94;5038704;28;20045;-77
2021/05/19 10:18:45;;;;;;;5.93;3.45;;;;;;;15.85;57.73;101559.88;5022395;28;20057;-77
2021/05/19 10:21:10;;;;;;;6.07;3.50;;;;;;;16.47;57.34;101562.94;5018543;28;20054;-77
2021/05/19 10:23:40;;;;;;;4.43;3.00;;;;;;;16.57;53.14;101546.88;5025499;28;20100;-78
2021/05/19 10:26:13;;;;;;;3.90;2.80;;;;;;;16.68;54.65;101548.34;5020410;28;20544;-78
2021/05/19 10:28:44;;;;;;;6.03;2.80;;;;;;;17.03;55.10;101543.72;5020047;28;20038;-80
2021/05/19 10:31:43;;;;;;;3.55;2.80;;;;;;;17.33;54.97;101544.78;5022825;28;20200;-78
2021/05/19 10:34:09;;;;;;;4.70;2.97;;;;;;;16.76;55.58;101543.03;5023828;28;20119;-79
2021/05/19 10:36:36;;;;;;;6.13;2.33;;;;;;;16.41;54.39;101537.13;5023242;28;20453;-79
2021/05/19 10:39:10;;;;;;;5.10;2.33;;;;;;;16.54;54.13;101539.28;5027873;28;20520;-76
2021/05/19 10:41:52;;;;;;;5.90;2.38;;;;;;;17.08;54.68;101534.25;5024610;28;20500;-78
2021/05/19 10:44:28;;;;;;;4.45;2.88;;;;;;;17.22;50.69;101529.25;5022007;28;20048;-77
2021/05/19 10:47:01;;;;;;;4.15;2.58;;;;;;;17.49;53.98;101528.78;5027420;28;20057;-78
2021/05/19 10:49:56;;;;;;;5.95;2.85;;;;;;;17.36;50.17;101520.53;5013306;28;20084;-79
2021/05/19 10:57:59;;;;;;;3.33;1.98;;;;;;;18.29;48.94;101524.19;5020864;28;20046;-76
2021/05/19 11:00:26;;;;;;;3.95;2.20;;;;;;;18.51;51.56;101519.81;5023394;28;20051;-75
2021/05/19 11:02:52;;;;;;;3.35;1.90;;;;;;;17.86;49.62;101518.50;5013772;28;20045;-75
2021/05/19 11:05:18;;;;;;;4.22;1.75;;;;;;;17.70;51.74;101517.56;5032175;28;20049;-75
2021/05/19 11:08:05;;;;;;;5.55;1.80;;;;;;;17.68;47.86;101521.38;5014756;28;20120;-75
2021/05/19 11:10:38;;;;;;;2.92;1.67;;;;;;;17.90;51.83;101510.00;5024644;28;20045;-76
2021/05/19 11:13:04;;;;;;;2.72;1.50;;;;;;;18.24;48.38;101513.25;5029210;28;20180;-76
2021/05/19 11:15:46;;;;;;;3.45;1.60;;;;;;;18.32;46.50;101510.53;4990175;28;20037;-77
2021/05/19 11:20:55;;;;;;;1.75;1.00;;;;;;;18.03;46.98;101504.13;5011134;28;20073;-76
2021/05/19 11:23:20;;;;;;;3.05;1.23;;;;;;;18.33;49.33;101498.06;5027177;28;20053;-76
2021/05/19 11:25:46;;;;;;;2.95;1.33;;;;;;;18.54;47.39;101500.06;5023088;28;20053;-75
2021/05/19 11:28:22;;;;;;;4.03;1.60;;;;;;;18.28;44.55;101491.47;5009502;28;20522;-77
2021/05/19 11:30:47;;;;;;;1.48;0.93;;;;;;;18.26;46.85;101487.34;5034281;28;20041;-76
2021/05/19 11:33:21;;;;;;;2.08;0.80;;;;;;;18.22;46.67;101488.72;5009772;28;20042;-77